sensor_id;sensor_type;location;lat;lon;timestamp;pressure;altitude;pressure_sealevel;temperature;humidity
3428;BME280;1727;42.624;23.406;2023-07-31T00:00:06;94500.72;;;23.37;81.86
3428;BME280;1727;42.624;23.406;2023-07-31T00:02:35;94504.44;;;23.36;81.87
3428;BME280;1727;42.624;23.406;2023-07-31T00:05:02;94505.63;;;23.40;82.72
3428;BME280;1727;42.624;23.406;2023-07-31T00:07:31;94502.31;;;23.44;82.44
3428;BME280;1727;42.624;23.406;2023-07-31T00:09:58;94515.13;;;23.42;82.34
3428;BME280;1727;42.624;23.406;2023-07-31T00:12:25;94511.41;;;23.43;82.56
3428;BME280;1727;42.624;23.406;2023-07-31T00:14:54;94510.59;;;23.43;83.08
3428;BME280;1727;42.624;23.406;2023-07-31T00:17:21;94515.28;;;23.47;82.94
3428;BME280;1727;42.624;23.406;2023-07-31T00:19:49;94512.59;;;23.47;82.31
3428;BME280;1727;42.624;23.406;2023-07-31T00:22:18;94510.09;;;23.53;81.84
3428;BME280;1727;42.624;23.406;2023-07-31T00:24:45;94513.34;;;23.55;81.25
3428;BME280;1727;42.624;23.406;2023-07-31T00:27:12;94512.94;;;23.58;81.75
3428;BME280;1727;42.624;23.406;2023-07-31T00:29:42;94506.78;;;23.57;81.51
3428;BME280;1727;42.624;23.406;2023-07-31T00:32:08;94508.44;;;23.52;81.74
3428;BME280;1727;42.624;23.406;2023-07-31T00:34:35;94492.44;;;23.45;81.74
3428;BME280;1727;42.624;23.406;2023-07-31T00:37:04;94489.09;;;23.49;81.75
3428;BME280;1727;42.624;23.406;2023-07-31T00:39:31;94487.13;;;23.38;82.75
3428;BME280;1727;42.624;23.406;2023-07-31T00:41:58;94482.31;;;23.22;83.02
3428;BME280;1727;42.624;23.406;2023-07-31T00:44:27;94474.06;;;23.24;82.79
3428;BME280;1727;42.624;23.406;2023-07-31T00:46:54;94481.34;;;23.16;83.99
3428;BME280;1727;42.624;23.406;2023-07-31T00:49:23;94475.78;;;23.11;84.56
3428;BME280;1727;42.624;23.406;2023-07-31T00:51:50;94472.94;;;23.06;84.88
3428;BME280;1727;42.624;23.406;2023-07-31T00:54:19;94482.44;;;23.02;85.51
3428;BME280;1727;42.624;23.406;2023-07-31T00:56:46;94483.31;;;22.96;85.74
3428;BME280;1727;42.624;23.406;2023-07-31T00:59:14;94485.84;;;22.91;85.92
3428;BME280;1727;42.624;23.406;2023-07-31T01:01:40;94478.88;;;22.77;85.88
3428;BME280;1727;42.624;23.406;2023-07-31T01:04:07;94474.16;;;22.72;86.78
3428;BME280;1727;42.624;23.406;2023-07-31T01:06:37;94472.34;;;22.66;87.80
3428;BME280;1727;42.624;23.406;2023-07-31T01:09:12;94475.25;;;22.65;87.04
3428;BME280;1727;42.624;23.406;2023-07-31T01:11:48;94465.97;;;22.67;86.60
3428;BME280;1727;42.624;23.406;2023-07-31T01:14:16;94471.66;;;22.77;86.04
3428;BME280;1727;42.624;23.406;2023-07-31T01:16:42;94466.13;;;22.85;85.97
3428;BME280;1727;42.624;23.406;2023-07-31T01:19:10;94466.06;;;22.92;86.54
3428;BME280;1727;42.624;23.406;2023-07-31T01:21:56;94468.34;;;22.89;87.00
3428;BME280;1727;42.624;23.406;2023-07-31T01:24:30;94454.97;;;22.89;87.33
3428;BME280;1727;42.624;23.406;2023-07-31T01:27:16;94460.31;;;22.89;87.47
3428;BME280;1727;42.624;23.406;2023-07-31T01:29:48;94453.34;;;22.88;87.41
3428;BME280;1727;42.624;23.406;2023-07-31T01:32:18;94459.13;;;22.84;87.41
3428;BME280;1727;42.624;23.406;2023-07-31T01:34:45;94453.53;;;22.79;87.57
3428;BME280;1727;42.624;23.406;2023-07-31T01:37:13;94455.63;;;22.77;87.77
3428;BME280;1727;42.624;23.406;2023-07-31T01:39:40;94457.09;;;22.73;87.91
3428;BME280;1727;42.624;23.406;2023-07-31T01:42:08;94454.25;;;22.68;88.00
3428;BME280;1727;42.624;23.406;2023-07-31T01:44:35;94447.25;;;22.67;87.83
3428;BME280;1727;42.624;23.406;2023-07-31T01:47:01;94449.72;;;22.69;88.09
3428;BME280;1727;42.624;23.406;2023-07-31T01:49:31;94448.50;;;22.65;87.49
3428;BME280;1727;42.624;23.406;2023-07-31T01:51:57;94450.34;;;22.64;87.53
3428;BME280;1727;42.624;23.406;2023-07-31T01:54:24;94451.41;;;22.63;87.74
3428;BME280;1727;42.624;23.406;2023-07-31T01:56:51;94447.69;;;22.64;87.54
3428;BME280;1727;42.624;23.406;2023-07-31T01:59:19;94455.56;;;22.52;87.68
3428;BME280;1727;42.624;23.406;2023-07-31T02:01:46;94459.13;;;22.40;88.49
3428;BME280;1727;42.624;23.406;2023-07-31T02:04:13;94463.88;;;22.38;88.91
3428;BME280;1727;42.624;23.406;2023-07-31T02:06:43;94455.06;;;22.24;90.18
3428;BME280;1727;42.624;23.406;2023-07-31T02:09:10;94465.97;;;22.29;90.09
3428;BME280;1727;42.624;23.406;2023-07-31T02:11:37;94464.94;;;22.23;90.59
3428;BME280;1727;42.624;23.406;2023-07-31T02:14:04;94463.31;;;22.22;90.73
3428;BME280;1727;42.624;23.406;2023-07-31T02:16:32;94468.84;;;22.28;90.81
3428;BME280;1727;42.624;23.406;2023-07-31T02:18:58;94475.03;;;22.28;90.51
3428;BME280;1727;42.624;23.406;2023-07-31T02:21:25;94477.34;;;22.11;91.41
3428;BME280;1727;42.624;23.406;2023-07-31T02:23:52;94479.00;;;22.06;91.88
3428;BME280;1727;42.624;23.406;2023-07-31T02:26:23;94482.91;;;22.10;91.93
3428;BME280;1727;42.624;23.406;2023-07-31T02:28:50;94476.72;;;21.96;92.52
3428;BME280;1727;42.624;23.406;2023-07-31T02:31:17;94488.25;;;21.90;93.31
3428;BME280;1727;42.624;23.406;2023-07-31T02:33:45;94482.50;;;21.93;93.51
3428;BME280;1727;42.624;23.406;2023-07-31T02:36:12;94478.81;;;21.87;94.14
3428;BME280;1727;42.624;23.406;2023-07-31T02:38:40;94483.31;;;21.93;94.21
3428;BME280;1727;42.624;23.406;2023-07-31T02:41:06;94481.88;;;21.91;94.56
3428;BME280;1727;42.624;23.406;2023-07-31T02:43:33;94471.81;;;21.93;94.26
3428;BME280;1727;42.624;23.406;2023-07-31T02:46:00;94481.69;;;21.99;93.86
3428;BME280;1727;42.624;23.406;2023-07-31T02:48:27;94485.78;;;22.08;93.83
3428;BME280;1727;42.624;23.406;2023-07-31T02:50:55;94470.75;;;22.14;93.38
3428;BME280;1727;42.624;23.406;2023-07-31T02:53:24;94482.25;;;22.14;93.50
3428;BME280;1727;42.624;23.406;2023-07-31T02:55:51;94476.69;;;22.16;93.24
3428;BME280;1727;42.624;23.406;2023-07-31T02:58:18;94480.81;;;22.18;92.96
3428;BME280;1727;42.624;23.406;2023-07-31T03:00:45;94483.06;;;22.15;93.10
3428;BME280;1727;42.624;23.406;2023-07-31T03:03:12;94487.41;;;22.09;93.04
3428;BME280;1727;42.624;23.406;2023-07-31T03:05:38;94492.75;;;22.03;93.50
3428;BME280;1727;42.624;23.406;2023-07-31T03:08:07;94489.47;;;22.01;93.21
3428;BME280;1727;42.624;23.406;2023-07-31T03:10:33;94498.53;;;22.00;93.71
3428;BME280;1727;42.624;23.406;2023-07-31T03:13:00;94491.53;;;22.05;93.31
3428;BME280;1727;42.624;23.406;2023-07-31T03:15:27;94487.84;;;22.06;93.16
3428;BME280;1727;42.624;23.406;2023-07-31T03:17:54;94489.91;;;22.04;93.33
3428;BME280;1727;42.624;23.406;2023-07-31T03:20:20;94484.56;;;22.04;93.36
3428;BME280;1727;42.624;23.406;2023-07-31T03:22:47;94485.38;;;22.05;93.34
3428;BME280;1727;42.624;23.406;2023-07-31T03:25:17;94496.06;;;22.05;93.12
3428;BME280;1727;42.624;23.406;2023-07-31T03:27:47;94489.47;;;22.01;93.60
3428;BME280;1727;42.624;23.406;2023-07-31T03:30:13;94499.56;;;22.05;93.45
3428;BME280;1727;42.624;23.406;2023-07-31T03:32:40;94483.72;;;21.97;93.98
3428;BME280;1727;42.624;23.406;2023-07-31T03:35:07;94499.34;;;22.00;94.01
3428;BME280;1727;42.624;23.406;2023-07-31T03:37:34;94500.16;;;22.07;93.30
3428;BME280;1727;42.624;23.406;2023-07-31T03:40:01;94498.91;;;22.16;92.89
3428;BME280;1727;42.624;23.406;2023-07-31T03:42:29;94498.72;;;22.11;93.20
3428;BME280;1727;42.624;23.406;2023-07-31T03:44:56;94502.59;;;22.15;93.42
3428;BME280;1727;42.624;23.406;2023-07-31T03:47:22;94503.84;;;22.13;92.60
3428;BME280;1727;42.624;23.406;2023-07-31T03:49:49;94505.03;;;22.23;92.28
3428;BME280;1727;42.624;23.406;2023-07-31T03:52:16;94505.03;;;22.23;91.93
3428;BME280;1727;42.624;23.406;2023-07-31T03:54:43;94509.56;;;22.23;92.42
3428;BME280;1727;42.624;23.406;2023-07-31T03:57:10;94518.69;;;22.53;89.84
3428;BME280;1727;42.624;23.406;2023-07-31T03:59:38;94516.84;;;22.54;90.26
3428;BME280;1727;42.624;23.406;2023-07-31T04:02:05;94524.66;;;22.62;90.37
3428;BME280;1727;42.624;23.406;2023-07-31T04:04:32;94525.47;;;22.63;89.53
3428;BME280;1727;42.624;23.406;2023-07-31T04:06:59;94527.94;;;22.64;89.17
3428;BME280;1727;42.624;23.406;2023-07-31T04:09:25;94524.47;;;22.57;89.07
3428;BME280;1727;42.624;23.406;2023-07-31T04:11:52;94525.72;;;22.48;89.60
3428;BME280;1727;42.624;23.406;2023-07-31T04:14:19;94537.66;;;22.45;89.66
3428;BME280;1727;42.624;23.406;2023-07-31T04:16:47;94531.28;;;22.46;89.37
3428;BME280;1727;42.624;23.406;2023-07-31T04:19:14;94538.31;;;22.41;89.10
3428;BME280;1727;42.624;23.406;2023-07-31T04:21:42;94541.41;;;22.38;89.31
3428;BME280;1727;42.624;23.406;2023-07-31T04:24:09;94544.09;;;22.31;89.68
3428;BME280;1727;42.624;23.406;2023-07-31T04:26:35;94534.63;;;22.35;89.03
3428;BME280;1727;42.624;23.406;2023-07-31T04:29:02;94541.63;;;22.36;90.11
3428;BME280;1727;42.624;23.406;2023-07-31T04:31:29;94537.09;;;22.37;89.83
3428;BME280;1727;42.624;23.406;2023-07-31T04:34:00;94536.25;;;22.43;89.21
3428;BME280;1727;42.624;23.406;2023-07-31T04:36:27;94538.63;;;22.64;89.51
3428;BME280;1727;42.624;23.406;2023-07-31T04:38:53;94537.72;;;22.83;88.29
3428;BME280;1727;42.624;23.406;2023-07-31T04:41:21;94534.38;;;22.95;86.09
3428;BME280;1727;42.624;23.406;2023-07-31T04:43:47;94545.47;;;22.98;86.04
3428;BME280;1727;42.624;23.406;2023-07-31T04:46:14;94544.25;;;22.94;85.83
3428;BME280;1727;42.624;23.406;2023-07-31T04:48:42;94538.69;;;22.96;85.65
3428;BME280;1727;42.624;23.406;2023-07-31T04:51:10;94536.88;;;22.90;85.25
3428;BME280;1727;42.624;23.406;2023-07-31T04:53:37;94536.88;;;22.90;85.59
3428;BME280;1727;42.624;23.406;2023-07-31T04:56:04;94532.91;;;22.99;85.06
3428;BME280;1727;42.624;23.406;2023-07-31T04:58:31;94532.03;;;23.05;84.79
3428;BME280;1727;42.624;23.406;2023-07-31T05:00:57;94541.81;;;22.93;84.48
3428;BME280;1727;42.624;23.406;2023-07-31T05:03:24;94534.84;;;22.78;84.93
3428;BME280;1727;42.624;23.406;2023-07-31T05:05:51;94534.88;;;22.72;84.25
3428;BME280;1727;42.624;23.406;2023-07-31T05:08:22;94533.41;;;22.76;84.45
3428;BME280;1727;42.624;23.406;2023-07-31T05:10:50;94534.00;;;22.91;84.15
3428;BME280;1727;42.624;23.406;2023-07-31T05:13:17;94515.06;;;22.93;84.27
3428;BME280;1727;42.624;23.406;2023-07-31T05:15:43;94520.56;;;23.29;82.27
3428;BME280;1727;42.624;23.406;2023-07-31T05:18:10;94534.97;;;23.60;80.48
3428;BME280;1727;42.624;23.406;2023-07-31T05:20:38;94529.75;;;23.71;79.88
3428;BME280;1727;42.624;23.406;2023-07-31T05:23:07;94531.19;;;23.92;90.65
3428;BME280;1727;42.624;23.406;2023-07-31T05:25:35;94531.59;;;23.71;79.80
3428;BME280;1727;42.624;23.406;2023-07-31T05:28:01;94520.53;;;23.61;82.18
3428;BME280;1727;42.624;23.406;2023-07-31T05:30:29;94521.69;;;23.46;80.61
3428;BME280;1727;42.624;23.406;2023-07-31T05:32:57;94523.47;;;23.28;81.89
3428;BME280;1727;42.624;23.406;2023-07-31T05:35:24;94529.31;;;23.18;82.12
3428;BME280;1727;42.624;23.406;2023-07-31T05:37:50;94528.59;;;23.29;81.34
3428;BME280;1727;42.624;23.406;2023-07-31T05:40:19;94524.88;;;23.62;81.14
3428;BME280;1727;42.624;23.406;2023-07-31T05:42:47;94531.00;;;24.12;79.52
3428;BME280;1727;42.624;23.406;2023-07-31T05:45:14;94534.84;;;24.41;77.28
3428;BME280;1727;42.624;23.406;2023-07-31T05:47:41;94528.69;;;24.52;77.11
3428;BME280;1727;42.624;23.406;2023-07-31T05:50:08;94532.00;;;24.36;74.75
3428;BME280;1727;42.624;23.406;2023-07-31T05:52:35;94530.00;;;24.31;76.86
3428;BME280;1727;42.624;23.406;2023-07-31T05:55:02;94530.63;;;24.08;77.94
3428;BME280;1727;42.624;23.406;2023-07-31T05:57:29;94530.78;;;24.14;77.55
3428;BME280;1727;42.624;23.406;2023-07-31T05:59:57;94535.78;;;24.28;75.10
3428;BME280;1727;42.624;23.406;2023-07-31T06:02:24;94538.97;;;24.74;75.80
3428;BME280;1727;42.624;23.406;2023-07-31T06:04:51;94539.22;;;25.20;72.27
3428;BME280;1727;42.624;23.406;2023-07-31T06:07:18;94544.19;;;25.47;70.83
3428;BME280;1727;42.624;23.406;2023-07-31T06:09:44;94534.16;;;25.54;67.62
3428;BME280;1727;42.624;23.406;2023-07-31T06:12:11;94544.66;;;25.14;68.50
3428;BME280;1727;42.624;23.406;2023-07-31T06:14:38;94544.03;;;24.82;70.01
3428;BME280;1727;42.624;23.406;2023-07-31T06:17:06;94540.19;;;24.41;69.59
3428;BME280;1727;42.624;23.406;2023-07-31T06:19:33;94544.84;;;24.27;70.19
3428;BME280;1727;42.624;23.406;2023-07-31T06:22:00;94535.84;;;24.03;70.83
3428;BME280;1727;42.624;23.406;2023-07-31T06:24:28;94535.28;;;23.95;72.31
3428;BME280;1727;42.624;23.406;2023-07-31T06:26:55;94537.72;;;23.96;71.05
3428;BME280;1727;42.624;23.406;2023-07-31T06:29:23;94544.91;;;24.02;71.77
3428;BME280;1727;42.624;23.406;2023-07-31T06:31:49;94541.19;;;24.03;71.47
3428;BME280;1727;42.624;23.406;2023-07-31T06:34:17;94548.88;;;24.00;70.85
3428;BME280;1727;42.624;23.406;2023-07-31T06:36:44;94544.72;;;23.97;70.85
3428;BME280;1727;42.624;23.406;2023-07-31T06:39:11;94536.44;;;24.05;70.60
3428;BME280;1727;42.624;23.406;2023-07-31T06:41:38;94535.44;;;24.61;69.87
3428;BME280;1727;42.624;23.406;2023-07-31T06:44:05;94542.03;;;25.25;64.52
3428;BME280;1727;42.624;23.406;2023-07-31T06:46:32;94533.41;;;25.77;62.06
3428;BME280;1727;42.624;23.406;2023-07-31T06:48:59;94535.94;;;26.30;61.25
3428;BME280;1727;42.624;23.406;2023-07-31T06:51:27;94531.88;;;26.39;59.49
3428;BME280;1727;42.624;23.406;2023-07-31T06:53:54;94530.69;;;26.23;59.98
3428;BME280;1727;42.624;23.406;2023-07-31T06:56:21;94535.03;;;26.01;61.79
3428;BME280;1727;42.624;23.406;2023-07-31T06:58:48;94531.41;;;25.84;62.19
3428;BME280;1727;42.624;23.406;2023-07-31T07:01:15;94542.88;;;25.79;61.75
3428;BME280;1727;42.624;23.406;2023-07-31T07:03:41;94539.59;;;25.77;65.69
3428;BME280;1727;42.624;23.406;2023-07-31T07:06:08;94551.56;;;25.63;64.01
3428;BME280;1727;42.624;23.406;2023-07-31T07:08:36;94550.00;;;25.44;66.09
3428;BME280;1727;42.624;23.406;2023-07-31T07:11:03;94542.28;;;25.36;64.05
3428;BME280;1727;42.624;23.406;2023-07-31T07:13:30;94541.41;;;25.65;63.38
3428;BME280;1727;42.624;23.406;2023-07-31T07:15:57;94530.19;;;25.56;63.23
3428;BME280;1727;42.624;23.406;2023-07-31T07:18:23;94533.81;;;25.62;64.05
3428;BME280;1727;42.624;23.406;2023-07-31T07:20:51;94530.06;;;25.63;63.32
3428;BME280;1727;42.624;23.406;2023-07-31T07:23:18;94540.41;;;26.13;61.06
3428;BME280;1727;42.624;23.406;2023-07-31T07:25:47;94521.34;;;26.38;59.19
3428;BME280;1727;42.624;23.406;2023-07-31T07:28:14;94533.72;;;26.50;58.32
3428;BME280;1727;42.624;23.406;2023-07-31T07:30:41;94538.53;;;26.89;59.71
3428;BME280;1727;42.624;23.406;2023-07-31T07:33:08;94542.47;;;27.09;57.69
3428;BME280;1727;42.624;23.406;2023-07-31T07:35:35;94540.94;;;27.13;56.37
3428;BME280;1727;42.624;23.406;2023-07-31T07:38:02;94532.34;;;27.16;56.30
3428;BME280;1727;42.624;23.406;2023-07-31T07:40:28;94542.69;;;27.20;55.12
3428;BME280;1727;42.624;23.406;2023-07-31T07:42:57;94551.69;;;27.13;55.73
3428;BME280;1727;42.624;23.406;2023-07-31T07:45:25;94559.78;;;27.13;55.76
3428;BME280;1727;42.624;23.406;2023-07-31T07:47:52;94554.69;;;27.29;55.04
3428;BME280;1727;42.624;23.406;2023-07-31T07:50:19;94560.53;;;26.97;56.62
3428;BME280;1727;42.624;23.406;2023-07-31T07:52:45;94554.81;;;26.82;58.14
3428;BME280;1727;42.624;23.406;2023-07-31T07:55:12;94560.53;;;26.97;57.16
3428;BME280;1727;42.624;23.406;2023-07-31T07:57:39;94557.97;;;26.91;56.52
3428;BME280;1727;42.624;23.406;2023-07-31T08:00:08;94558.28;;;26.66;57.55
3428;BME280;1727;42.624;23.406;2023-07-31T08:02:35;94566.75;;;26.34;58.43
3428;BME280;1727;42.624;23.406;2023-07-31T08:05:02;94567.28;;;26.24;58.46
3428;BME280;1727;42.624;23.406;2023-07-31T08:07:29;94568.72;;;26.50;57.36
3428;BME280;1727;42.624;23.406;2023-07-31T08:09:56;94566.50;;;26.47;56.44
3428;BME280;1727;42.624;23.406;2023-07-31T08:12:23;94558.69;;;26.86;57.01
3428;BME280;1727;42.624;23.406;2023-07-31T08:14:50;94554.50;;;27.19;56.34
3428;BME280;1727;42.624;23.406;2023-07-31T08:17:18;94558.63;;;27.38;54.05
3428;BME280;1727;42.624;23.406;2023-07-31T08:19:45;94561.72;;;27.30;55.29
3428;BME280;1727;42.624;23.406;2023-07-31T08:22:12;94562.38;;;27.08;54.79
3428;BME280;1727;42.624;23.406;2023-07-31T08:24:39;94560.44;;;26.80;54.91
3428;BME280;1727;42.624;23.406;2023-07-31T08:27:09;94564.03;;;27.09;55.47
3428;BME280;1727;42.624;23.406;2023-07-31T08:29:36;94563.19;;;27.37;54.33
3428;BME280;1727;42.624;23.406;2023-07-31T08:32:04;94564.50;;;27.63;53.71
3428;BME280;1727;42.624;23.406;2023-07-31T08:34:32;94558.13;;;28.03;51.03
3428;BME280;1727;42.624;23.406;2023-07-31T08:36:59;94561.22;;;28.28;50.31
3428;BME280;1727;42.624;23.406;2023-07-31T08:39:25;94563.97;;;28.50;51.29
3428;BME280;1727;42.624;23.406;2023-07-31T08:41:58;94555.31;;;28.48;50.65
3428;BME280;1727;42.624;23.406;2023-07-31T08:44:25;94554.84;;;28.18;52.04
3428;BME280;1727;42.624;23.406;2023-07-31T08:46:52;94562.44;;;28.21;49.94
3428;BME280;1727;42.624;23.406;2023-07-31T08:49:20;94549.63;;;28.11;49.78
3428;BME280;1727;42.624;23.406;2023-07-31T08:51:50;94547.44;;;28.08;50.04
3428;BME280;1727;42.624;23.406;2023-07-31T08:54:18;94557.78;;;28.16;49.72
3428;BME280;1727;42.624;23.406;2023-07-31T08:56:46;94553.06;;;28.40;49.59
3428;BME280;1727;42.624;23.406;2023-07-31T08:59:14;94558.41;;;28.57;49.28
3428;BME280;1727;42.624;23.406;2023-07-31T09:01:43;94561.69;;;28.81;49.11
3428;BME280;1727;42.624;23.406;2023-07-31T09:04:16;94555.38;;;28.92;48.10
3428;BME280;1727;42.624;23.406;2023-07-31T09:06:46;94556.81;;;29.21;48.48
3428;BME280;1727;42.624;23.406;2023-07-31T09:09:15;94559.84;;;29.30;47.15
3428;BME280;1727;42.624;23.406;2023-07-31T09:11:42;94551.19;;;29.28;47.66
3428;BME280;1727;42.624;23.406;2023-07-31T09:14:10;94549.69;;;29.42;47.00
3428;BME280;1727;42.624;23.406;2023-07-31T09:16:51;94541.53;;;29.37;47.30
3428;BME280;1727;42.624;23.406;2023-07-31T09:19:25;94543.38;;;29.32;46.99
3428;BME280;1727;42.624;23.406;2023-07-31T09:21:51;94546.84;;;29.27;47.26
3428;BME280;1727;42.624;23.406;2023-07-31T09:24:26;94545.34;;;29.14;46.16
3428;BME280;1727;42.624;23.406;2023-07-31T09:26:54;94540.81;;;28.93;46.81
3428;BME280;1727;42.624;23.406;2023-07-31T09:29:21;94538.97;;;28.98;47.80
3428;BME280;1727;42.624;23.406;2023-07-31T09:31:50;94530.34;;;29.02;46.13
3428;BME280;1727;42.624;23.406;2023-07-31T09:34:17;94527.97;;;29.05;46.84
3428;BME280;1727;42.624;23.406;2023-07-31T09:36:45;94527.59;;;28.96;45.91
3428;BME280;1727;42.624;23.406;2023-07-31T09:39:13;94525.47;;;28.98;45.77
3428;BME280;1727;42.624;23.406;2023-07-31T09:41:44;94531.63;;;28.94;46.33
3428;BME280;1727;42.624;23.406;2023-07-31T09:44:12;94524.09;;;28.96;46.41
3428;BME280;1727;42.624;23.406;2023-07-31T09:46:39;94525.88;;;28.90;46.42
3428;BME280;1727;42.624;23.406;2023-07-31T09:49:07;94530.88;;;28.60;46.61
3428;BME280;1727;42.624;23.406;2023-07-31T09:51:34;94515.25;;;28.62;47.83
3428;BME280;1727;42.624;23.406;2023-07-31T09:54:14;94515.75;;;28.81;47.58
3428;BME280;1727;42.624;23.406;2023-07-31T09:56:44;94515.91;;;28.91;47.10
3428;BME280;1727;42.624;23.406;2023-07-31T09:59:12;94507.56;;;28.92;47.81
3428;BME280;1727;42.624;23.406;2023-07-31T10:01:40;94520.88;;;28.99;47.17
3428;BME280;1727;42.624;23.406;2023-07-31T10:04:08;94510.69;;;29.06;46.50
3428;BME280;1727;42.624;23.406;2023-07-31T10:06:36;94517.38;;;29.25;47.34
3428;BME280;1727;42.624;23.406;2023-07-31T10:09:06;94511.53;;;29.39;45.94
3428;BME280;1727;42.624;23.406;2023-07-31T10:11:38;94515.09;;;29.17;46.14
3428;BME280;1727;42.624;23.406;2023-07-31T10:14:07;94516.59;;;29.03;47.10
3428;BME280;1727;42.624;23.406;2023-07-31T10:16:35;94512.97;;;28.92;46.99
3428;BME280;1727;42.624;23.406;2023-07-31T10:19:02;94507.22;;;28.89;46.57
3428;BME280;1727;42.624;23.406;2023-07-31T10:21:30;94507.25;;;28.67;47.22
3428;BME280;1727;42.624;23.406;2023-07-31T10:24:02;94507.91;;;28.57;47.98
3428;BME280;1727;42.624;23.406;2023-07-31T10:26:30;94513.50;;;28.51;48.03
3428;BME280;1727;42.624;23.406;2023-07-31T10:28:58;94503.81;;;28.55;47.67
3428;BME280;1727;42.624;23.406;2023-07-31T10:31:27;94513.78;;;28.32;48.19
3428;BME280;1727;42.624;23.406;2023-07-31T10:33:56;94509.03;;;28.23;47.93
3428;BME280;1727;42.624;23.406;2023-07-31T10:36:23;94504.41;;;28.18;47.74
3428;BME280;1727;42.624;23.406;2023-07-31T10:38:51;94484.81;;;28.06;47.54
3428;BME280;1727;42.624;23.406;2023-07-31T10:41:18;94491.09;;;28.12;47.54
3428;BME280;1727;42.624;23.406;2023-07-31T10:43:45;94493.75;;;28.28;47.74
3428;BME280;1727;42.624;23.406;2023-07-31T10:46:13;94493.22;;;28.10;48.09
3428;BME280;1727;42.624;23.406;2023-07-31T10:48:42;94493.34;;;28.20;46.84
3428;BME280;1727;42.624;23.406;2023-07-31T10:51:10;94491.22;;;28.38;46.64
3428;BME280;1727;42.624;23.406;2023-07-31T10:53:38;94479.16;;;28.68;45.64
3428;BME280;1727;42.624;23.406;2023-07-31T10:56:06;94474.34;;;28.92;45.98
3428;BME280;1727;42.624;23.406;2023-07-31T10:58:34;94484.50;;;28.85;45.37
3428;BME280;1727;42.624;23.406;2023-07-31T11:01:03;94487.84;;;28.70;44.67
3428;BME280;1727;42.624;23.406;2023-07-31T11:03:45;94481.31;;;28.66;44.90
3428;BME280;1727;42.624;23.406;2023-07-31T11:06:13;94477.22;;;28.63;44.65
3428;BME280;1727;42.624;23.406;2023-07-31T11:08:44;94467.75;;;28.22;44.87
3428;BME280;1727;42.624;23.406;2023-07-31T11:11:13;94474.97;;;28.17;46.48
3428;BME280;1727;42.624;23.406;2023-07-31T11:13:41;94467.91;;;28.32;45.79
3428;BME280;1727;42.624;23.406;2023-07-31T11:16:09;94461.19;;;28.57;45.07
3428;BME280;1727;42.624;23.406;2023-07-31T11:18:39;94466.16;;;28.65;44.52
3428;BME280;1727;42.624;23.406;2023-07-31T11:21:07;94463.94;;;28.62;45.20
3428;BME280;1727;42.624;23.406;2023-07-31T11:23:37;94465.78;;;28.56;44.74
3428;BME280;1727;42.624;23.406;2023-07-31T11:26:05;94467.16;;;28.59;46.85
3428;BME280;1727;42.624;23.406;2023-07-31T11:28:33;94473.88;;;28.56;45.75
3428;BME280;1727;42.624;23.406;2023-07-31T11:31:00;94467.16;;;28.59;44.96
3428;BME280;1727;42.624;23.406;2023-07-31T11:33:30;94457.25;;;28.64;45.29
3428;BME280;1727;42.624;23.406;2023-07-31T11:35:57;94463.94;;;28.62;45.05
3428;BME280;1727;42.624;23.406;2023-07-31T11:38:27;94472.00;;;28.57;47.12
3428;BME280;1727;42.624;23.406;2023-07-31T11:40:54;94462.81;;;28.58;44.12
3428;BME280;1727;42.624;23.406;2023-07-31T11:43:22;94453.47;;;28.65;43.07
3428;BME280;1727;42.624;23.406;2023-07-31T11:45:52;94458.31;;;28.63;42.53
3428;BME280;1727;42.624;23.406;2023-07-31T11:48:20;94453.59;;;28.54;43.95
3428;BME280;1727;42.624;23.406;2023-07-31T11:50:49;94459.63;;;28.61;43.98
3428;BME280;1727;42.624;23.406;2023-07-31T11:53:17;94447.75;;;28.62;43.62
3428;BME280;1727;42.624;23.406;2023-07-31T11:55:47;94449.31;;;28.80;42.79
3428;BME280;1727;42.624;23.406;2023-07-31T11:58:15;94447.00;;;28.88;42.48
3428;BME280;1727;42.624;23.406;2023-07-31T12:00:43;94462.56;;;28.81;43.65
3428;BME280;1727;42.624;23.406;2023-07-31T12:03:10;94458.50;;;28.57;44.66
3428;BME280;1727;42.624;23.406;2023-07-31T12:05:37;94446.00;;;28.51;45.02
3428;BME280;1727;42.624;23.406;2023-07-31T12:08:09;94450.91;;;28.54;44.67
3428;BME280;1727;42.624;23.406;2023-07-31T12:10:36;94438.22;;;28.54;45.02
3428;BME280;1727;42.624;23.406;2023-07-31T12:13:08;94440.03;;;28.71;44.77
3428;BME280;1727;42.624;23.406;2023-07-31T12:15:40;94444.16;;;28.78;43.49
3428;BME280;1727;42.624;23.406;2023-07-31T12:18:08;94434.56;;;28.87;43.98
3428;BME280;1727;42.624;23.406;2023-07-31T12:20:42;94429.34;;;29.08;44.94
3428;BME280;1727;42.624;23.406;2023-07-31T12:23:14;94427.69;;;29.34;43.98
3428;BME280;1727;42.624;23.406;2023-07-31T12:25:41;94423.69;;;29.41;42.50
3428;BME280;1727;42.624;23.406;2023-07-31T12:28:09;94426.47;;;29.19;42.43
3428;BME280;1727;42.624;23.406;2023-07-31T12:30:39;94420.84;;;29.21;43.88
3428;BME280;1727;42.624;23.406;2023-07-31T12:33:13;94420.38;;;29.29;43.38
3428;BME280;1727;42.624;23.406;2023-07-31T12:35:44;94417.69;;;29.34;42.60
3428;BME280;1727;42.624;23.406;2023-07-31T12:38:12;94417.06;;;29.22;43.25
3428;BME280;1727;42.624;23.406;2023-07-31T12:40:39;94426.56;;;29.24;41.72
3428;BME280;1727;42.624;23.406;2023-07-31T12:43:07;94422.97;;;29.19;45.87
3428;BME280;1727;42.624;23.406;2023-07-31T12:45:35;94425.44;;;29.20;42.75
3428;BME280;1727;42.624;23.406;2023-07-31T12:48:02;94421.81;;;29.10;43.03
3428;BME280;1727;42.624;23.406;2023-07-31T12:50:29;94404.75;;;29.04;43.69
3428;BME280;1727;42.624;23.406;2023-07-31T12:52:57;94414.13;;;28.96;43.75
3428;BME280;1727;42.624;23.406;2023-07-31T12:55:23;94412.06;;;28.82;43.81
3428;BME280;1727;42.624;23.406;2023-07-31T12:57:51;94399.53;;;28.71;43.42
3428;BME280;1727;42.624;23.406;2023-07-31T13:00:17;94409.84;;;28.52;44.92
3428;BME280;1727;42.624;23.406;2023-07-31T13:02:46;94403.88;;;28.50;44.10
3428;BME280;1727;42.624;23.406;2023-07-31T13:05:13;94393.19;;;28.60;44.24
3428;BME280;1727;42.624;23.406;2023-07-31T13:07:40;94396.63;;;28.77;43.40
3428;BME280;1727;42.624;23.406;2023-07-31T13:10:08;94391.41;;;28.92;42.75
3428;BME280;1727;42.624;23.406;2023-07-31T13:12:34;94393.94;;;29.04;42.61